Time;durP1;ratioP1;P1;durP2;ratioP2;P2;SDS_P1;SDS_P2;PMS_P1;PMS_P2;Temp;Humidity;BMP_temperature;BMP_pressure;BME280_temperature;BME280_humidity;BME280_pressure;Samples;Min_cycle;Max_cycle;Signal;HPM_P1;HPM_P2
2022/08/13 00:01:36;;;;;;;9.23;8.20;;;19.40;99.90;;;;;;4915201;29;20836;-70
2022/08/13 00:04:04;;;;;;;8.43;7.65;;;19.40;99.90;;;;;;4931341;29;20097;-70
2022/08/13 00:09:06;;;;;;;15.77;8.13;;;19.30;99.90;;;;;;4931116;29;20058;-70
2022/08/13 00:14:22;;;;;;;8.75;7.93;;;19.20;99.90;;;;;;4913850;29;20051;-70
2022/08/13 00:16:49;;;;;;;25.80;10.00;;;19.20;99.90;;;;;;4913607;29;20057;-71
2022/08/13 00:19:15;;;;;;;9.43;8.63;;;19.10;99.90;;;;;;4916946;29;20346;-71
2022/08/13 00:21:41;;;;;;;15.63;8.77;;;19.10;99.90;;;;;;4913837;29;20062;-71
2022/08/13 00:24:08;;;;;;;10.85;8.30;;;19.10;99.90;;;;;;4914554;29;20039;-70
2022/08/13 00:26:34;;;;;;;16.40;9.07;;;19.10;99.90;;;;;;4928339;29;20470;-71
2022/08/13 00:29:01;;;;;;;9.77;8.60;;;19.00;99.90;;;;;;4913437;29;20062;-71
2022/08/13 00:31:28;;;;;;;11.43;9.23;;;19.00;99.90;;;;;;4911607;29;20087;-71
2022/08/13 00:33:58;;;;;;;11.10;9.85;;;19.00;99.90;;;;;;4912041;29;20055;-71
2022/08/13 00:36:24;;;;;;;16.48;9.93;;;18.90;99.90;;;;;;4914507;29;20058;-71
2022/08/13 00:38:52;;;;;;;11.20;10.05;;;19.00;99.90;;;;;;4914389;29;20079;-71
2022/08/13 00:44:07;;;;;;;12.45;10.20;;;18.90;99.90;;;;;;4916639;29;20055;-71
2022/08/13 00:46:34;;;;;;;10.82;9.70;;;18.80;99.90;;;;;;4931245;29;20122;-71
2022/08/13 00:49:03;;;;;;;10.82;9.85;;;18.80;99.90;;;;;;4930681;29;20884;-71
2022/08/13 00:51:30;;;;;;;10.30;9.20;;;18.70;99.90;;;;;;4932221;29;20051;-71
2022/08/13 00:53:56;;;;;;;11.50;10.32;;;18.70;99.90;;;;;;4932468;29;20036;-70
2022/08/13 00:56:22;;;;;;;10.35;9.43;;;18.70;99.90;;;;;;4914505;29;20048;-71
2022/08/13 00:58:49;;;;;;;12.70;10.32;;;18.70;99.90;;;;;;4912908;29;20048;-70
2022/08/13 01:01:15;;;;;;;12.70;9.07;;;18.60;99.90;;;;;;4929899;29;20032;-71
2022/08/13 01:03:42;;;;;;;16.08;9.63;;;18.60;99.90;;;;;;4934681;29;20040;-70
2022/08/13 01:06:08;;;;;;;12.02;10.07;;;18.60;99.90;;;;;;4916701;29;20050;-71
2022/08/13 01:08:40;;;;;;;12.63;9.82;;;18.50;99.90;;;;;;4933875;29;20051;-71
2022/08/13 01:11:13;;;;;;;12.07;10.43;;;18.50;99.90;;;;;;4933407;29;20062;-70
2022/08/13 01:13:42;;;;;;;13.10;10.82;;;18.40;99.90;;;;;;4933664;29;20051;-71
2022/08/13 01:16:13;;;;;;;12.38;11.27;;;18.40;99.90;;;;;;4920829;29;20062;-71
2022/08/13 01:18:50;;;;;;;12.05;10.85;;;18.40;99.90;;;;;;4924871;29;20143;-70
2022/08/13 01:21:20;;;;;;;13.07;11.90;;;18.30;99.90;;;;;;4916632;29;20059;-70
2022/08/13 01:23:49;;;;;;;12.57;11.25;;;18.30;99.90;;;;;;4933814;29;20039;-70
2022/08/13 01:26:17;;;;;;;12.68;11.38;;;18.20;99.90;;;;;;4934132;29;20709;-71
2022/08/13 01:28:45;;;;;;;12.90;11.68;;;18.20;99.90;;;;;;4936597;29;20509;-70
2022/08/13 01:31:15;;;;;;;15.82;12.32;;;18.20;99.90;;;;;;4910843;29;20091;-71
2022/08/13 01:33:43;;;;;;;15.38;11.23;;;18.10;99.90;;;;;;4938228;29;20282;-70
2022/08/13 01:36:09;;;;;;;;;;;18.20;99.90;;;;;;4916694;29;20055;-70
2022/08/13 01:38:36;;;;;;;12.38;11.20;;;18.10;99.90;;;;;;4914871;29;19926;-70
2022/08/13 01:41:04;;;;;;;13.70;11.67;;;18.00;99.90;;;;;;4915841;29;20098;-70
2022/08/13 01:43:31;;;;;;;12.65;11.40;;;18.00;99.90;;;;;;4933147;29;20055;-70
2022/08/13 01:46:01;;;;;;;12.50;11.23;;;17.90;99.90;;;;;;4915353;29;20828;-71
2022/08/13 01:51:23;;;;;;;11.40;10.38;;;17.80;99.90;;;;;;4909642;29;20059;-70
2022/08/13 01:53:51;;;;;;;12.45;11.35;;;17.70;99.90;;;;;;4916021;29;20557;-72
2022/08/13 01:56:21;;;;;;;12.52;10.57;;;17.70;99.90;;;;;;4915687;29;20039;-71
2022/08/13 01:58:53;;;;;;;13.95;12.48;;;17.60;99.90;;;;;;4916268;29;20702;-71
2022/08/13 02:01:25;;;;;;;11.90;10.75;;;17.60;99.90;;;;;;4932541;29;20571;-71
2022/08/13 02:03:51;;;;;;;16.70;11.95;;;17.60;99.90;;;;;;4930665;29;20061;-72
2022/08/13 02:06:28;;;;;;;12.95;11.75;;;17.50;99.90;;;;;;4912612;29;20166;-72
2022/08/13 02:09:03;;;;;;;13.37;12.00;;;17.50;99.90;;;;;;4923387;29;20163;-72
2022/08/13 02:11:36;;;;;;;13.10;11.82;;;17.50;99.90;;;;;;4915561;29;20122;-72
2022/08/13 02:14:04;;;;;;;13.02;11.40;;;17.40;99.90;;;;;;4919502;29;20056;-72
2022/08/13 02:16:35;;;;;;;13.38;11.98;;;17.30;99.90;;;;;;4912417;29;20055;-72
2022/08/13 02:19:07;;;;;;;12.80;11.45;;;17.30;99.90;;;;;;4915811;29;20771;-72
2022/08/13 02:21:38;;;;;;;18.13;12.10;;;17.20;99.90;;;;;;4915428;29;20055;-72
2022/08/13 02:24:08;;;;;;;16.23;10.90;;;17.20;99.90;;;;;;4899611;29;20416;-71
2022/08/13 02:26:35;;;;;;;11.75;10.75;;;17.20;99.90;;;;;;4914575;29;20560;-72
2022/08/13 02:29:04;;;;;;;14.15;12.27;;;17.20;99.90;;;;;;4930425;29;20051;-72
2022/08/13 02:31:31;;;;;;;14.40;12.88;;;17.20;99.90;;;;;;4932433;29;20051;-72
2022/08/13 02:33:57;;;;;;;13.93;12.57;;;17.10;99.90;;;;;;4915379;29;20091;-72
2022/08/13 02:36:24;;;;;;;15.85;13.68;;;17.20;99.90;;;;;;4932741;29;20044;-70
2022/08/13 02:38:58;;;;;;;14.93;13.45;;;17.20;99.90;;;;;;4913297;29;20051;-71
2022/08/13 02:41:43;;;;;;;15.20;13.70;;;17.20;99.90;;;;;;4931593;29;20075;-71
2022/08/13 02:44:15;;;;;;;16.70;14.82;;;17.20;99.90;;;;;;4931623;29;21326;-71
2022/08/13 02:46:48;;;;;;;16.60;14.10;;;17.10;99.90;;;;;;4932514;29;20048;-71
2022/08/13 02:49:13;;;;;;;16.25;14.77;;;17.10;99.90;;;;;;4914975;29;20039;-71
2022/08/13 02:51:39;;;;;;;15.02;13.32;;;17.00;99.90;;;;;;4910675;29;20040;-71
2022/08/13 02:54:06;;;;;;;18.42;14.68;;;17.00;99.90;;;;;;4912580;29;20047;-71
2022/08/13 02:56:33;;;;;;;15.65;14.05;;;17.00;99.90;;;;;;4915896;29;20048;-71
2022/08/13 02:58:59;;;;;;;15.27;13.88;;;17.00;99.90;;;;;;4932020;29;20047;-71
2022/08/13 03:01:25;;;;;;;16.10;14.48;;;17.00;99.90;;;;;;4936871;29;20114;-71
2022/08/13 03:03:55;;;;;;;15.75;13.77;;;16.90;99.90;;;;;;4945622;29;20134;-72
2022/08/13 03:06:21;;;;;;;15.35;13.80;;;16.90;99.90;;;;;;4945853;29;20055;-71
2022/08/13 03:08:51;;;;;;;17.90;12.95;;;16.80;99.90;;;;;;4931590;29;20095;-72
2022/08/13 03:11:18;;;;;;;13.65;12.27;;;16.80;99.90;;;;;;4922153;29;20051;-72
2022/08/13 03:13:57;;;;;;;12.63;11.43;;;16.70;99.90;;;;;;4934889;29;20059;-72
2022/08/13 03:16:25;;;;;;;13.38;12.13;;;16.70;99.90;;;;;;4915364;29;20043;-71
2022/08/13 03:18:54;;;;;;;14.25;12.85;;;16.60;99.90;;;;;;4915116;29;20054;-72
2022/08/13 03:21:29;;;;;;;14.27;12.98;;;16.60;99.90;;;;;;4937804;29;20062;-71
2022/08/13 03:23:55;;;;;;;17.05;15.15;;;16.50;99.90;;;;;;4904551;29;20155;-72
2022/08/13 03:26:21;;;;;;;17.13;15.63;;;16.40;99.90;;;;;;4914452;29;20159;-72
2022/08/13 03:28:51;;;;;;;17.40;15.68;;;16.40;99.90;;;;;;4912682;29;20039;-72
2022/08/13 03:31:18;;;;;;;24.58;16.35;;;16.40;99.90;;;;;;4911306;29;20055;-72
2022/08/13 03:33:44;;;;;;;19.47;17.63;;;16.40;99.90;;;;;;4925010;29;20079;-72
2022/08/13 03:36:10;;;;;;;20.63;18.58;;;16.40;99.90;;;;;;4933614;29;20510;-72
2022/08/13 03:38:36;;;;;;;25.48;19.73;;;16.40;99.90;;;;;;4922707;29;20054;-71
2022/08/13 03:41:11;;;;;;;18.92;17.10;;;16.40;99.90;;;;;;4912793;29;20047;-72
2022/08/13 03:43:38;;;;;;;18.02;16.20;;;16.40;99.90;;;;;;4931414;29;20047;-72
2022/08/13 03:46:04;;;;;;;20.25;18.15;;;16.40;99.90;;;;;;4930861;29;20079;-72
2022/08/13 03:48:30;;;;;;;21.40;18.10;;;16.40;99.90;;;;;;4930518;29;20063;-72
2022/08/13 03:50:59;;;;;;;21.17;18.98;;;16.30;99.90;;;;;;4930610;29;20050;-72
2022/08/13 03:53:25;;;;;;;21.13;19.08;;;16.30;99.90;;;;;;4930810;29;20086;-72
2022/08/13 03:55:52;;;;;;;19.95;17.63;;;16.30;99.90;;;;;;4931556;29;20059;-73
2022/08/13 03:58:18;;;;;;;23.52;18.95;;;16.30;99.90;;;;;;4914686;29;20528;-73
2022/08/13 04:00:49;;;;;;;19.92;17.48;;;16.30;99.90;;;;;;4914516;29;20048;-73
2022/08/13 04:03:23;;;;;;;25.75;18.67;;;16.30;99.90;;;;;;4914994;29;20044;-73
2022/08/13 04:06:12;;;;;;;19.05;16.60;;;16.20;99.90;;;;;;4913071;29;20130;-73
2022/08/13 04:08:39;;;;;;;18.95;16.98;;;16.20;99.90;;;;;;4904867;29;20047;-74
2022/08/13 04:11:08;;;;;;;18.33;16.08;;;16.10;99.90;;;;;;4932024;29;20417;-74
2022/08/13 04:13:36;;;;;;;35.05;13.98;;;16.10;99.90;;;;;;4931827;29;20068;-74
2022/08/13 04:16:04;;;;;;;;;;;16.10;99.90;;;;;;4931887;29;20055;-73
2022/08/13 04:18:33;;;;;;;15.35;13.95;;;16.10;99.90;;;;;;4931887;29;20340;-73
2022/08/13 04:21:01;;;;;;;17.58;15.85;;;16.00;99.90;;;;;;4939773;29;20039;-73
2022/08/13 04:23:27;;;;;;;;;;;16.10;99.90;;;;;;4938418;29;20060;-74
2022/08/13 04:25:54;;;;;;;16.90;15.38;;;16.10;99.90;;;;;;4934628;29;19997;-74
2022/08/13 04:28:21;;;;;;;22.20;16.67;;;16.20;99.90;;;;;;4920376;29;20080;-74
2022/08/13 04:30:47;;;;;;;17.50;15.30;;;16.30;99.90;;;;;;4929646;29;20129;-74
2022/08/13 04:33:14;;;;;;;17.52;15.68;;;16.40;99.90;;;;;;4913275;29;20086;-74
2022/08/13 04:35:42;;;;;;;17.85;14.77;;;16.40;99.90;;;;;;4930390;29;20056;-74
2022/08/13 04:38:08;;;;;;;18.58;16.70;;;16.50;99.90;;;;;;4930903;29;20043;-74
2022/08/13 04:40:40;;;;;;;16.23;14.63;;;16.60;99.90;;;;;;4897236;29;20075;-74
2022/08/13 04:43:07;;;;;;;15.05;13.65;;;16.70;99.90;;;;;;4905401;29;20047;-74
2022/08/13 04:45:33;;;;;;;18.08;13.73;;;16.60;99.90;;;;;;4912657;29;20099;-74
2022/08/13 04:48:03;;;;;;;16.48;14.75;;;16.50;99.90;;;;;;4928729;29;20091;-74
2022/08/13 04:50:32;;;;;;;18.20;16.27;;;16.40;99.90;;;;;;4914852;29;20048;-74
2022/08/13 04:53:00;;;;;;;15.25;13.63;;;16.40;99.90;;;;;;4911847;29;20048;-74
2022/08/13 04:55:26;;;;;;;15.77;14.35;;;16.40;99.90;;;;;;4930815;29;20079;-74
2022/08/13 04:57:52;;;;;;;19.33;15.30;;;16.40;99.90;;;;;;4910769;29;20086;-74
2022/08/13 05:00:20;;;;;;;18.25;14.77;;;16.50;99.90;;;;;;4914733;29;20127;-73
2022/08/13 05:02:46;;;;;;;16.27;14.70;;;16.70;99.90;;;;;;4914331;29;20047;-73
2022/08/13 05:05:12;;;;;;;15.85;14.32;;;16.80;99.90;;;;;;4924217;29;20131;-74
2022/08/13 05:07:38;;;;;;;15.70;13.13;;;16.90;99.90;;;;;;4918143;29;20122;-74
2022/08/13 05:10:06;;;;;;;21.05;15.10;;;17.00;99.90;;;;;;4912070;29;20139;-76
2022/08/13 05:12:36;;;;;;;16.02;14.60;;;17.10;99.90;;;;;;4913623;29;20051;-75
2022/08/13 05:15:03;;;;;;;15.38;12.93;;;17.30;99.90;;;;;;4930591;29;20075;-75
2022/08/13 05:17:30;;;;;;;23.00;15.00;;;17.40;99.90;;;;;;4927328;29;20058;-75
2022/08/13 05:19:56;;;;;;;15.88;14.32;;;17.40;99.90;;;;;;4910265;29;20295;-75
2022/08/13 05:22:23;;;;;;;14.65;13.25;;;17.50;99.90;;;;;;4908612;29;20047;-75
2022/08/13 05:24:50;;;;;;;21.98;15.77;;;17.60;99.90;;;;;;4912301;29;20059;-75
2022/08/13 05:27:19;;;;;;;14.30;12.93;;;17.60;99.90;;;;;;4913540;29;20520;-76
2022/08/13 05:29:46;;;;;;;16.63;14.95;;;17.70;99.90;;;;;;4921946;29;20335;-76
2022/08/13 05:32:11;;;;;;;16.48;14.25;;;17.80;99.90;;;;;;4912076;29;20052;-76
2022/08/13 05:34:37;;;;;;;27.02;17.65;;;17.90;99.90;;;;;;4917485;29;20106;-76
2022/08/13 05:37:04;;;;;;;29.55;17.80;;;17.80;99.90;;;;;;4920052;29;20054;-76
2022/08/13 05:39:30;;;;;;;18.38;16.58;;;17.80;99.90;;;;;;4920427;29;20051;-76
2022/08/13 05:41:56;;;;;;;22.13;18.17;;;17.80;99.90;;;;;;4930642;29;20138;-76
2022/08/13 05:44:22;;;;;;;18.67;16.98;;;17.80;99.90;;;;;;4913056;29;20130;-76
2022/08/13 05:46:48;;;;;;;19.23;17.23;;;17.80;99.90;;;;;;4919314;29;20048;-76
2022/08/13 05:49:15;;;;;;;19.63;17.67;;;17.90;99.90;;;;;;4932779;29;20881;-74
2022/08/13 05:51:43;;;;;;;18.13;16.40;;;17.90;99.90;;;;;;4932606;29;20040;-77
2022/08/13 05:54:10;;;;;;;;;;;17.90;99.90;;;;;;4917520;29;20051;-75
2022/08/13 05:56:38;;;;;;;22.90;17.58;;;17.90;99.90;;;;;;4934190;29;19927;-76
2022/08/13 06:03:22;;;;;;;22.05;20.00;;;17.90;99.90;;;;;;4917707;29;20060;-72
2022/08/13 06:04:41;;;;;;;22.73;18.25;;;17.90;99.90;;;;;;4909948;29;20146;-73
2022/08/13 06:07:17;;;;;;;20.08;18.05;;;17.90;99.90;;;;;;4916983;29;20134;-73
2022/08/13 06:09:43;;;;;;;21.15;19.00;;;17.90;99.90;;;;;;4933869;29;20055;-74
2022/08/13 06:12:09;;;;;;;22.58;20.15;;;18.00;99.90;;;;;;4933798;29;20063;-73
2022/08/13 06:14:35;;;;;;;20.73;18.55;;;18.00;99.90;;;;;;4931488;29;20418;-73
2022/08/13 06:17:02;;;;;;;20.10;18.00;;;18.00;99.90;;;;;;4932907;29;20122;-73
2022/08/13 06:19:32;;;;;;;24.60;19.33;;;18.10;99.90;;;;;;4913422;29;20059;-73
2022/08/13 06:22:03;;;;;;;25.63;18.55;;;18.20;99.90;;;;;;4934880;29;20120;-73
2022/08/13 06:24:35;;;;;;;19.75;17.75;;;18.20;99.90;;;;;;4917877;29;20044;-71
2022/08/13 06:27:04;;;;;;;20.17;18.08;;;18.30;99.90;;;;;;4914784;29;20044;-70
2022/08/13 06:29:34;;;;;;;24.77;18.58;;;18.30;99.90;;;;;;4933947;29;20187;-71
2022/08/13 06:32:03;;;;;;;20.30;18.50;;;18.40;99.90;;;;;;4934952;29;20051;-72
2022/08/13 06:34:34;;;;;;;20.88;18.92;;;18.40;99.90;;;;;;4922326;29;21021;-73
2022/08/13 06:37:05;;;;;;;21.35;19.13;;;18.50;99.90;;;;;;4916717;29;20059;-75
2022/08/13 06:39:32;;;;;;;19.95;18.20;;;18.60;99.90;;;;;;4916638;29;20051;-74
2022/08/13 06:42:03;;;;;;;20.55;18.38;;;18.70;99.90;;;;;;4916439;29;20047;-75
2022/08/13 06:44:33;;;;;;;19.38;17.33;;;18.80;99.90;;;;;;4916679;29;20055;-77
2022/08/13 06:47:03;;;;;;;16.98;15.57;;;18.90;99.90;;;;;;4921579;29;20066;-76
2022/08/13 06:49:31;;;;;;;19.70;17.70;;;19.00;99.90;;;;;;4920021;29;20062;-77
2022/08/13 06:51:59;;;;;;;19.33;15.35;;;19.10;99.90;;;;;;4917303;29;20055;-72
2022/08/13 06:54:26;;;;;;;18.13;16.27;;;19.40;99.90;;;;;;4904442;29;20394;-72
2022/08/13 06:56:57;;;;;;;17.55;15.65;;;19.60;99.90;;;;;;4922564;29;20146;-72
2022/08/13 06:59:24;;;;;;;15.88;14.48;;;19.80;99.90;;;;;;4914087;29;20400;-72
2022/08/13 07:01:57;;;;;;;16.85;14.68;;;20.10;99.90;;;;;;4914282;29;20055;-72
2022/08/13 07:04:24;;;;;;;14.68;13.23;;;20.40;99.90;;;;;;4909626;29;20043;-73
2022/08/13 07:06:53;;;;;;;13.50;12.07;;;20.80;99.90;;;;;;4922273;29;20972;-73
2022/08/13 07:09:20;;;;;;;14.80;13.45;;;21.20;99.90;;;;;;4915931;29;20091;-73
2022/08/13 07:11:46;;;;;;;28.45;12.40;;;21.60;99.90;;;;;;4915084;29;20395;-73
2022/08/13 07:14:13;;;;;;;11.77;10.70;;;21.90;99.90;;;;;;4915884;29;20059;-74
2022/08/13 07:16:42;;;;;;;10.68;9.88;;;22.30;99.90;;;;;;4931144;29;20621;-74
2022/08/13 07:19:08;;;;;;;11.15;9.93;;;22.80;99.90;;;;;;4914316;29;20035;-74
2022/08/13 07:21:34;;;;;;;14.20;9.88;;;23.10;99.90;;;;;;4913531;29;20083;-74
2022/08/13 07:24:03;;;;;;;10.63;8.20;;;23.50;99.90;;;;;;4930915;29;20493;-73
2022/08/13 07:26:31;;;;;;;11.15;8.05;;;23.70;99.90;;;;;;4917742;29;20067;-74
2022/08/13 07:28:57;;;;;;;8.82;7.75;;;23.90;97.60;;;;;;4931188;29;20078;-73
2022/08/13 07:31:29;;;;;;;14.02;8.30;;;24.20;94.80;;;;;;4932360;29;20494;-74
2022/08/13 07:33:57;;;;;;;6.88;6.22;;;24.40;91.00;;;;;;4915355;29;20048;-75
2022/08/13 07:36:28;;;;;;;7.93;7.20;;;24.60;87.40;;;;;;4915063;29;20423;-74
2022/08/13 07:38:54;;;;;;;7.07;6.38;;;24.90;85.20;;;;;;4914464;29;20058;-75
2022/08/13 07:41:21;;;;;;;7.72;7.00;;;25.10;80.00;;;;;;4911935;29;20409;-75
2022/08/13 07:43:47;;;;;;;6.28;5.68;;;25.30;76.00;;;;;;4915337;29;20062;-74
2022/08/13 07:46:17;;;;;;;8.45;6.88;;;25.40;73.60;;;;;;4909189;29;20498;-72
2022/08/13 07:48:52;;;;;;;6.32;5.82;;;25.70;71.30;;;;;;4921057;29;20470;-73
2022/08/13 07:51:20;;;;;;;6.22;5.72;;;26.00;70.10;;;;;;4921159;29;20112;-72
2022/08/13 07:53:54;;;;;;;13.95;6.70;;;26.10;68.30;;;;;;4913739;29;20063;-73
2022/08/13 07:56:28;;;;;;;6.57;5.97;;;26.20;64.60;;;;;;4914823;29;20502;-72
2022/08/13 07:59:07;;;;;;;5.90;5.38;;;26.30;65.10;;;;;;4914589;29;20456;-72
2022/08/13 08:01:52;;;;;;;7.75;5.40;;;26.60;63.90;;;;;;4914113;29;20039;-72
2022/08/13 08:04:21;;;;;;;6.07;5.63;;;27.00;63.60;;;;;;4924026;29;20106;-71
2022/08/13 08:06:48;;;;;;;7.07;5.55;;;27.30;63.60;;;;;;4914188;29;20052;-73
2022/08/13 08:09:18;;;;;;;5.93;5.40;;;27.60;62.80;;;;;;4914337;29;20083;-72
2022/08/13 08:14:30;;;;;;;5.68;5.18;;;28.00;59.70;;;;;;4906588;29;20152;-71
2022/08/13 08:17:00;;;;;;;9.70;5.00;;;28.00;60.10;;;;;;4929947;29;20055;-73
2022/08/13 08:19:31;;;;;;;6.78;4.82;;;28.10;58.10;;;;;;4911114;29;20055;-73
2022/08/13 08:21:58;;;;;;;8.90;4.82;;;28.20;57.60;;;;;;4929029;29;20055;-72
2022/08/13 08:24:25;;;;;;;;;;;28.30;57.40;;;;;;4913484;29;20051;-72
2022/08/13 08:26:53;;;;;;;;;;;28.30;54.80;;;;;;4929207;29;19931;-74
2022/08/13 08:29:18;;;;;;;;;;;28.50;54.10;;;;;;4931035;29;19923;-75
2022/08/13 08:31:44;;;;;;;7.18;5.20;;;28.60;54.40;;;;;;4910435;29;19919;-72
2022/08/13 08:34:11;;;;;;;5.90;5.18;;;28.70;56.70;;;;;;4915137;29;20059;-73
2022/08/13 08:36:42;;;;;;;5.50;5.00;;;29.00;55.30;;;;;;4931182;29;20055;-72
2022/08/13 08:44:41;;;;;;;7.15;4.82;;;29.40;53.90;;;;;;4927448;29;20048;-72
2022/08/13 08:47:07;;;;;;;5.35;4.95;;;29.60;52.70;;;;;;4930102;29;20038;-72
2022/08/13 08:49:34;;;;;;;6.03;5.55;;;29.90;52.70;;;;;;4932160;29;20059;-71
2022/08/13 08:52:01;;;;;;;5.45;4.97;;;30.10;53.40;;;;;;4930169;29;20044;-72
2022/08/13 08:54:29;;;;;;;6.28;5.28;;;30.20;51.80;;;;;;4929226;29;20622;-72
2022/08/13 08:56:56;;;;;;;5.10;4.70;;;30.30;51.00;;;;;;4930430;29;20413;-72
2022/08/13 08:59:35;;;;;;;6.07;5.47;;;30.50;51.10;;;;;;4930600;29;20044;-71
2022/08/13 09:02:01;;;;;;;5.03;4.43;;;30.70;48.90;;;;;;4927971;29;20295;-72
2022/08/13 09:04:28;;;;;;;6.07;5.35;;;30.70;50.70;;;;;;4913824;29;20046;-72
2022/08/13 09:06:59;;;;;;;6.35;4.78;;;30.70;49.30;;;;;;4934066;29;20707;-71
2022/08/13 09:09:26;;;;;;;5.47;5.03;;;30.70;49.70;;;;;;4915032;29;20417;-71
2022/08/13 09:11:55;;;;;;;6.60;5.63;;;30.80;49.60;;;;;;4928656;29;20055;-71
2022/08/13 09:14:30;;;;;;;8.38;6.10;;;31.00;48.80;;;;;;4911408;29;20413;-72
2022/08/13 09:16:58;;;;;;;5.32;4.90;;;31.00;48.50;;;;;;4929792;29;20078;-72
2022/08/13 09:19:25;;;;;;;10.45;4.70;;;31.20;48.60;;;;;;4929626;29;20083;-71
2022/08/13 09:21:51;;;;;;;4.72;4.35;;;31.30;48.70;;;;;;4932366;29;20048;-72
2022/08/13 09:24:24;;;;;;;6.47;4.18;;;31.30;47.60;;;;;;4931585;29;20059;-72
2022/08/13 09:26:51;;;;;;;5.15;4.75;;;31.20;47.10;;;;;;4933295;29;20051;-72
2022/08/13 09:29:19;;;;;;;5.65;5.18;;;30.90;45.80;;;;;;4936604;29;20135;-72
2022/08/13 09:31:58;;;;;;;4.78;4.47;;;30.80;46.30;;;;;;4920291;29;20055;-72
2022/08/13 09:34:24;;;;;;;5.80;4.80;;;30.70;46.20;;;;;;4916084;29;20052;-72
2022/08/13 09:36:56;;;;;;;6.78;4.88;;;31.00;46.40;;;;;;4916441;29;20047;-71
2022/08/13 09:39:54;;;;;;;5.85;5.05;;;31.10;45.70;;;;;;4923612;29;20059;-72
2022/08/13 09:42:29;;;;;;;4.97;4.65;;;31.40;45.40;;;;;;4921883;29;20043;-71
2022/08/13 09:44:58;;;;;;;6.63;6.07;;;31.50;45.20;;;;;;4930993;29;20094;-72
2022/08/13 09:47:24;;;;;;;7.72;5.30;;;31.50;45.00;;;;;;4933345;29;20122;-71
2022/08/13 09:49:50;;;;;;;4.30;4.00;;;31.60;45.00;;;;;;4935170;29;20229;-73
2022/08/13 09:52:16;;;;;;;6.18;4.78;;;31.40;43.70;;;;;;4919441;29;20051;-72
2022/08/13 09:54:43;;;;;;;4.28;3.97;;;31.50;43.90;;;;;;4922262;29;20058;-73
2022/08/13 09:57:09;;;;;;;5.13;4.45;;;31.30;43.50;;;;;;4916426;29;20048;-72
2022/08/13 09:59:35;;;;;;;5.25;4.90;;;31.10;44.80;;;;;;4915259;29;20054;-72
2022/08/13 10:02:09;;;;;;;4.93;4.53;;;31.20;44.60;;;;;;4915036;29;20084;-72
2022/08/13 10:04:37;;;;;;;5.55;4.85;;;31.40;44.80;;;;;;4933054;29;20043;-72
2022/08/13 10:07:04;;;;;;;5.78;5.38;;;31.40;43.40;;;;;;4932745;29;20100;-72
2022/08/13 10:09:33;;;;;;;5.07;4.68;;;31.60;43.40;;;;;;4915579;29;20119;-73
2022/08/13 10:12:04;;;;;;;5.35;4.88;;;31.50;42.30;;;;;;4915649;29;20043;-73
2022/08/13 10:14:30;;;;;;;4.82;4.43;;;31.40;41.50;;;;;;4932188;29;20621;-75
2022/08/13 10:16:57;;;;;;;5.35;5.05;;;31.40;42.30;;;;;;4916474;29;20067;-74
2022/08/13 10:19:22;;;;;;;5.47;5.07;;;31.10;42.40;;;;;;4915861;29;20052;-73
2022/08/13 10:21:48;;;;;;;5.00;4.70;;;30.90;41.90;;;;;;4914916;29;20075;-74
2022/08/13 10:24:13;;;;;;;5.22;4.82;;;31.00;42.10;;;;;;4907245;29;20052;-74
2022/08/13 10:26:40;;;;;;;5.35;4.47;;;30.80;41.30;;;;;;4911344;29;20051;-74
2022/08/13 10:29:10;;;;;;;5.43;4.93;;;31.00;41.50;;;;;;4918586;29;20095;-74
2022/08/13 10:31:36;;;;;;;6.13;5.53;;;31.00;41.80;;;;;;4913476;29;20047;-72
2022/08/13 10:34:03;;;;;;;5.60;5.03;;;31.20;42.10;;;;;;4911927;29;20054;-73
2022/08/13 10:36:30;;;;;;;4.55;4.25;;;31.30;41.40;;;;;;4919729;29;20048;-73
2022/08/13 10:38:56;;;;;;;4.80;4.38;;;31.50;41.60;;;;;;4926587;29;20051;-72
2022/08/13 10:41:24;;;;;;;6.32;4.95;;;31.60;41.80;;;;;;4903054;29;20433;-72
2022/08/13 10:43:50;;;;;;;;;;;31.80;41.50;;;;;;4915108;29;20054;-72
2022/08/13 10:46:17;;;;;;;4.57;4.25;;;31.60;40.00;;;;;;4933671;29;20392;-72
2022/08/13 10:48:51;;;;;;;6.07;5.03;;;31.80;41.70;;;;;;4910163;29;20528;-74
2022/08/13 10:51:17;;;;;;;5.15;4.82;;;31.80;41.20;;;;;;4917306;29;20048;-72
2022/08/13 10:53:55;;;;;;;6.72;4.72;;;31.80;41.70;;;;;;4934933;29;20553;-74
2022/08/13 10:56:22;;;;;;;4.55;4.22;;;31.90;41.20;;;;;;4932384;29;20048;-73
2022/08/13 10:58:48;;;;;;;;;;;32.00;41.10;;;;;;4931188;29;20109;-74
2022/08/13 11:01:15;;;;;;;5.27;4.97;;;32.10;39.30;;;;;;4930743;29;20385;-73
2022/08/13 11:03:43;;;;;;;4.68;4.38;;;32.10;40.00;;;;;;4930299;29;20284;-72
2022/08/13 11:06:09;;;;;;;5.03;4.63;;;32.20;40.70;;;;;;4926704;29;20123;-73
2022/08/13 11:08:38;;;;;;;5.47;4.97;;;32.30;40.70;;;;;;4906412;29;20131;-73
2022/08/13 11:11:05;;;;;;;16.63;5.53;;;32.50;40.00;;;;;;4921667;29;20055;-73
2022/08/13 11:13:31;;;;;;;7.47;5.20;;;32.30;39.20;;;;;;4916228;29;20048;-73
2022/08/13 11:16:01;;;;;;;5.07;4.72;;;32.10;39.40;;;;;;4913193;29;20107;-72
2022/08/13 11:18:28;;;;;;;5.15;4.60;;;32.00;39.10;;;;;;4931672;29;20050;-71
2022/08/13 11:21:06;;;;;;;5.63;5.22;;;32.00;40.10;;;;;;4914275;29;20095;-72
2022/08/13 11:23:32;;;;;;;5.13;4.72;;;32.20;40.20;;;;;;4927923;29;20846;-73
2022/08/13 11:25:57;;;;;;;5.22;4.72;;;32.30;39.60;;;;;;4930857;29;20056;-72
2022/08/13 11:28:24;;;;;;;8.90;4.57;;;32.50;40.00;;;;;;4931403;29;20042;-73
2022/08/13 11:30:53;;;;;;;4.87;4.53;;;32.50;38.80;;;;;;4931049;29;20055;-73
2022/08/13 11:33:20;;;;;;;6.75;5.03;;;32.20;39.00;;;;;;4928580;29;20055;-73
2022/08/13 11:35:47;;;;;;;8.85;5.35;;;32.40;40.30;;;;;;4931241;29;20039;-73
2022/08/13 11:38:15;;;;;;;5.85;5.35;;;32.50;39.20;;;;;;4927769;29;20051;-71
2022/08/13 11:40:55;;;;;;;5.38;4.88;;;32.50;39.60;;;;;;4932049;29;20051;-73
2022/08/13 11:43:26;;;;;;;5.57;5.05;;;32.60;38.50;;;;;;4913687;29;20055;-72
2022/08/13 11:45:53;;;;;;;5.47;5.05;;;32.50;39.30;;;;;;4927249;29;20711;-73
2022/08/13 11:48:19;;;;;;;5.55;5.07;;;32.60;39.40;;;;;;4911841;29;20114;-76
2022/08/13 11:50:46;;;;;;;5.22;4.75;;;32.60;39.20;;;;;;4913703;29;20488;-73
2022/08/13 11:53:12;;;;;;;5.13;4.70;;;32.60;38.90;;;;;;4914473;29;20059;-75
2022/08/13 11:55:37;;;;;;;5.70;4.35;;;32.50;39.40;;;;;;4914876;29;20094;-74
2022/08/13 11:58:08;;;;;;;4.60;4.30;;;32.60;39.60;;;;;;4914152;29;20044;-73
2022/08/13 12:00:37;;;;;;;5.70;5.25;;;32.70;38.70;;;;;;4927199;29;20185;-76
2022/08/13 12:03:04;;;;;;;5.25;4.85;;;32.70;38.10;;;;;;4914053;29;20059;-74
2022/08/13 12:05:30;;;;;;;7.47;5.55;;;32.50;38.80;;;;;;4924298;29;20066;-76
2022/08/13 12:07:56;;;;;;;6.88;4.68;;;32.20;38.20;;;;;;4930278;29;20044;-75
2022/08/13 12:10:22;;;;;;;5.38;4.95;;;32.20;39.10;;;;;;4933784;29;20095;-74
2022/08/13 12:12:49;;;;;;;9.60;5.93;;;32.30;38.60;;;;;;4931531;29;20040;-75
2022/08/13 12:15:15;;;;;;;6.10;5.70;;;32.50;39.00;;;;;;4928974;29;20082;-73
2022/08/13 12:17:42;;;;;;;11.20;5.77;;;32.60;38.70;;;;;;4929630;29;20130;-78
2022/08/13 12:20:13;;;;;;;5.60;5.25;;;32.50;39.00;;;;;;4919767;29;20043;-75
2022/08/13 12:22:40;;;;;;;7.20;5.35;;;32.30;39.00;;;;;;4914823;29;20052;-74
2022/08/13 12:25:07;;;;;;;5.53;5.13;;;31.80;39.20;;;;;;4929503;29;20064;-75
2022/08/13 12:27:34;;;;;;;5.47;5.15;;;31.60;39.80;;;;;;4885779;29;20091;-75
2022/08/13 12:30:00;;;;;;;6.60;5.53;;;31.80;39.70;;;;;;4931920;29;20098;-74
2022/08/13 12:32:26;;;;;;;6.57;6.00;;;31.80;39.90;;;;;;4933605;29;20062;-74
2022/08/13 12:34:52;;;;;;;15.02;6.20;;;32.00;40.10;;;;;;4902830;29;20059;-74
2022/08/13 12:37:17;;;;;;;6.15;5.55;;;32.10;39.90;;;;;;4916203;29;20050;-74
2022/08/13 12:39:43;;;;;;;6.40;5.85;;;32.00;39.10;;;;;;4913497;29;20409;-75
2022/08/13 12:42:09;;;;;;;8.68;5.97;;;31.80;39.50;;;;;;4916699;29;20128;-73
2022/08/13 12:44:34;;;;;;;6.57;5.72;;;31.90;39.30;;;;;;4914151;29;20050;-73
2022/08/13 12:47:00;;;;;;;6.28;5.70;;;31.90;38.80;;;;;;4916299;29;20093;-73
2022/08/13 12:49:27;;;;;;;8.60;6.40;;;31.80;38.60;;;;;;4913974;29;20076;-72
2022/08/13 12:51:52;;;;;;;6.53;6.13;;;32.00;39.10;;;;;;4913492;29;20047;-73
2022/08/13 12:54:18;;;;;;;6.00;5.43;;;32.10;39.00;;;;;;4935522;29;20040;-74
2022/08/13 12:56:45;;;;;;;6.13;5.57;;;32.00;38.60;;;;;;4918986;29;20062;-74
2022/08/13 12:59:11;;;;;;;6.47;5.82;;;32.00;38.60;;;;;;4916541;29;20062;-73
2022/08/13 13:01:36;;;;;;;6.68;5.97;;;32.00;38.30;;;;;;4933026;29;20413;-74
2022/08/13 13:04:02;;;;;;;6.00;5.50;;;32.10;38.60;;;;;;4925304;29;20059;-74
2022/08/13 13:06:27;;;;;;;8.55;6.68;;;32.10;38.80;;;;;;4913673;29;20044;-76